Time,TemperatureF,DewpointF,PressureIn,WindDirection,WindDirectionDegrees,WindSpeedMPH,WindSpeedGustMPH,Humidity,HourlyPrecipIn,Conditions,Clouds,dailyrainin,SoftwareType,DateUTC
2013-01-22 00:10:00,58.3,56.9,28.50,SW,225,0.0,2.0,95,0.00,00:10,,0.00,WeatherDisplay:WD co,2013-01-21 22:10:00,
2013-01-22 00:40:00,57.7,55.7,28.50,SSW,202,0.0,1.0,93,0.00,00:40,,0.00,WeatherDisplay:WD co,2013-01-21 22:40:00,
2013-01-22 01:10:00,56.5,54.2,28.51,West,272,0.0,3.0,92,0.00,01:10,,0.00,WeatherDisplay:WD co,2013-01-21 23:10:00,
2013-01-22 01:15:00,56.3,54.0,28.51,West,264,0.0,1.0,92,0.00,01:15,,0.00,WeatherDisplay:WD co,2013-01-21 23:15:00,
2013-01-22 01:40:00,56.5,53.6,28.52,SSW,211,0.0,6.0,90,0.00,01:40,,0.00,WeatherDisplay:WD co,2013-01-21 23:40:00,
2013-01-22 02:00:00,56.3,52.8,28.52,SSW,203,0.0,1.0,88,0.00,02:00,,0.00,WeatherDisplay:WD co,2013-01-22 00:00:00,
2013-01-22 03:10:00,56.7,51.9,28.52,South,191,0.0,3.0,84,0.00,03:10,,0.00,WeatherDisplay:WD co,2013-01-22 01:10:00,
2013-01-22 03:40:00,57.0,52.2,28.52,SSW,206,0.0,2.0,84,0.00,03:40,,0.00,WeatherDisplay:WD co,2013-01-22 01:40:00,
2013-01-22 05:00:00,57.0,50.6,28.52,SSW,200,0.0,2.0,79,0.00,05:00,,0.00,WeatherDisplay:WD co,2013-01-22 03:00:00,
2013-01-22 06:35:00,56.3,50.9,28.54,SE,124,0.0,1.0,82,0.00,06:35,,0.00,WeatherDisplay:WD co,2013-01-22 04:35:00,
2013-01-22 07:30:00,54.0,49.9,28.56,NW,321,0.0,0.0,86,0.00,07:30,,0.00,WeatherDisplay:WD co,2013-01-22 05:30:00,
2013-01-22 09:15:00,63.1,54.3,28.59,SSW,208,0.0,1.0,73,0.00,09:15,,0.00,WeatherDisplay:WD co,2013-01-22 07:15:00,
2013-01-22 09:30:00,61.5,52.8,28.59,West,274,1.0,3.0,73,0.00,09:30,,0.00,WeatherDisplay:WD co,2013-01-22 07:30:00,
2013-01-22 10:40:00,61.5,53.5,28.61,SW,221,0.0,0.0,75,0.00,10:40,,0.00,WeatherDisplay:WD co,2013-01-22 08:40:00,
2013-01-22 11:25:00,61.3,51.9,28.61,WSW,252,0.0,1.0,71,0.00,11:25,,0.00,WeatherDisplay:WD co,2013-01-22 09:25:00,
2013-01-22 12:00:00,64.2,51.8,28.60,NW,315,0.0,2.0,64,0.00,12:00,,0.00,WeatherDisplay:WD co,2013-01-22 10:00:00,
2013-01-22 12:10:00,64.0,51.6,28.60,SSW,198,0.0,5.0,64,0.00,12:10,,0.00,WeatherDisplay:WD co,2013-01-22 10:10:00,
2013-01-22 13:00:00,64.6,51.3,28.59,West,275,0.0,2.0,62,0.00,13:00,,0.00,WeatherDisplay:WD co,2013-01-22 11:00:00,
2013-01-22 13:20:00,65.3,51.1,28.58,SSW,203,0.0,2.0,60,0.00,13:20,,0.00,WeatherDisplay:WD co,2013-01-22 11:20:00,
2013-01-22 13:50:00,65.3,51.1,28.57,South,190,0.0,2.0,60,0.00,13:50,,0.00,WeatherDisplay:WD co,2013-01-22 11:50:00,
2013-01-22 14:25:00,64.2,50.9,28.57,SSW,207,0.0,1.0,62,0.00,14:25,,0.00,WeatherDisplay:WD co,2013-01-22 12:25:00,
2013-01-22 14:40:00,63.7,50.8,28.57,SW,234,0.0,6.0,63,0.00,14:40,,0.00,WeatherDisplay:WD co,2013-01-22 12:40:00,
2013-01-22 15:00:00,65.7,53.6,28.57,East,84,1.0,8.0,65,0.00,15:00,,0.00,WeatherDisplay:WD co,2013-01-22 13:00:00,
2013-01-22 16:55:00,65.7,51.8,28.57,NW,315,1.0,8.0,61,0.00,16:55,,0.00,WeatherDisplay:WD co,2013-01-22 14:55:00,
2013-01-22 17:25:00,63.7,51.7,28.57,SSE,162,0.0,2.0,65,0.00,17:25,,0.00,WeatherDisplay:WD co,2013-01-22 15:25:00,
2013-01-22 18:45:00,59.9,53.4,28.58,NW,307,1.0,7.0,79,0.00,18:45,,0.00,WeatherDisplay:WD co,2013-01-22 16:45:00,
2013-01-22 20:00:00,59.5,54.7,28.59,ESE,118,1.0,10.0,84,0.00,20:00,,0.00,WeatherDisplay:WD co,2013-01-22 18:00:00,
2013-01-22 20:35:00,59.5,54.0,28.60,WSW,254,0.0,6.0,82,0.00,20:35,,0.00,WeatherDisplay:WD co,2013-01-22 18:35:00,
2013-01-22 20:55:00,59.2,54.0,28.59,NNW,338,0.0,2.0,83,0.00,20:55,,0.00,WeatherDisplay:WD co,2013-01-22 18:55:00,
2013-01-22 21:10:00,59.2,53.0,28.60,SSW,194,6.0,9.0,80,0.00,21:10,,0.00,WeatherDisplay:WD co,2013-01-22 19:10:00,
2013-01-22 22:00:00,58.5,53.6,28.61,North,10,0.0,3.0,84,0.00,22:00,,0.00,WeatherDisplay:WD co,2013-01-22 20:00:00,